Time;durP1;ratioP1;P1;durP2;ratioP2;P2;SDS_P1;SDS_P2;PMS_P1;PMS_P2;Temp;Humidity;BMP_temperature;BMP_pressure;BME280_temperature;BME280_humidity;BME280_pressure;Samples;Min_cycle;Max_cycle;Signal;HPM_P1;HPM_P2
2022/07/08 00:01:07;;;;;;;4.22;1.92;;;18.40;99.70;;;;;;5009409;28;20104;-55
2022/07/08 00:03:33;;;;;;;3.90;1.42;;;18.40;99.90;;;;;;5009542;28;20073;-53
2022/07/08 00:06:00;;;;;;;6.40;1.90;;;18.40;99.90;;;;;;5009218;28;20129;-55
2022/07/08 00:08:28;;;;;;;2.58;1.67;;;18.40;99.90;;;;;;5009538;28;20350;-54
2022/07/08 00:10:56;;;;;;;3.83;1.67;;;18.40;99.90;;;;;;5008694;28;20054;-53
2022/07/08 00:13:23;;;;;;;7.20;1.77;;;18.40;99.90;;;;;;5020973;28;20084;-56
2022/07/08 00:15:50;;;;;;;3.88;1.52;;;18.30;99.90;;;;;;5012362;28;20081;-55
2022/07/08 00:18:17;;;;;;;6.43;1.63;;;18.30;99.90;;;;;;5008875;28;20096;-54
2022/07/08 00:20:44;;;;;;;5.78;2.25;;;18.30;99.90;;;;;;5008838;28;20525;-53
2022/07/08 00:23:10;;;;;;;6.43;2.42;;;18.30;99.90;;;;;;5008820;28;20092;-52
2022/07/08 00:25:37;;;;;;;3.40;1.80;;;18.20;99.90;;;;;;5008807;28;20050;-53
2022/07/08 00:28:04;;;;;;;4.50;1.85;;;18.20;99.90;;;;;;5008845;28;20050;-53
2022/07/08 00:30:31;;;;;;;5.75;1.83;;;18.20;99.90;;;;;;5007886;28;20046;-55
2022/07/08 00:32:58;;;;;;;5.45;1.98;;;18.20;99.90;;;;;;5008677;28;20042;-52
2022/07/08 00:35:25;;;;;;;2.88;1.65;;;18.20;99.90;;;;;;5008649;28;20116;-53
2022/07/08 00:37:53;;;;;;;10.30;2.22;;;18.10;99.90;;;;;;5008576;28;20042;-55
2022/07/08 00:40:20;;;;;;;4.28;2.25;;;18.00;99.90;;;;;;5009083;28;20104;-54
2022/07/08 00:42:48;;;;;;;5.60;2.20;;;18.00;99.90;;;;;;4997977;28;20472;-53
2022/07/08 00:45:16;;;;;;;4.20;2.08;;;18.00;99.90;;;;;;5008578;28;20136;-54
2022/07/08 00:47:43;;;;;;;6.05;2.05;;;18.00;99.90;;;;;;5008439;28;20112;-53
2022/07/08 00:50:10;;;;;;;5.82;2.00;;;18.00;99.90;;;;;;5008390;28;20072;-51
2022/07/08 00:52:37;;;;;;;5.03;1.85;;;18.10;99.90;;;;;;5008311;28;20085;-54
2022/07/08 00:55:05;;;;;;;6.22;2.90;;;18.10;99.90;;;;;;5008604;28;20481;-51
2022/07/08 00:57:33;;;;;;;5.18;2.33;;;18.00;99.90;;;;;;5007088;28;20300;-55
2022/07/08 01:00:00;;;;;;;5.50;2.00;;;18.00;99.90;;;;;;5008397;28;20485;-54
2022/07/08 01:02:27;;;;;;;5.97;2.42;;;18.00;99.90;;;;;;5006414;28;20540;-54
2022/07/08 01:04:53;;;;;;;5.50;1.88;;;17.90;99.90;;;;;;5006940;28;20580;-53
2022/07/08 01:07:21;;;;;;;5.18;1.40;;;17.90;99.90;;;;;;5007817;28;20261;-55
2022/07/08 01:09:47;;;;;;;4.80;2.30;;;17.90;99.90;;;;;;5006786;28;20125;-51
2022/07/08 01:12:14;;;;;;;5.70;1.83;;;17.80;99.90;;;;;;5009375;28;20093;-54
2022/07/08 01:14:41;;;;;;;3.40;2.00;;;17.80;99.90;;;;;;5010747;28;20497;-55
2022/07/08 01:17:08;;;;;;;4.78;1.80;;;17.70;99.90;;;;;;5006783;28;20078;-54
2022/07/08 01:19:34;;;;;;;4.25;1.52;;;17.70;99.90;;;;;;5007960;28;20081;-53
2022/07/08 01:22:02;;;;;;;5.53;1.90;;;17.70;99.90;;;;;;5008008;28;20088;-52
2022/07/08 01:24:28;;;;;;;3.88;2.03;;;17.60;99.90;;;;;;5007946;28;20469;-55
2022/07/08 01:26:56;;;;;;;7.38;2.63;;;17.60;99.90;;;;;;5007762;28;20567;-54
2022/07/08 01:29:23;;;;;;;8.48;2.45;;;17.60;99.90;;;;;;5006573;28;20490;-55
2022/07/08 01:31:52;;;;;;;6.47;1.80;;;17.50;99.90;;;;;;5007817;28;20096;-54
2022/07/08 01:34:19;;;;;;;4.60;2.22;;;17.40;99.90;;;;;;5007718;28;20042;-54
2022/07/08 01:36:46;;;;;;;4.28;2.10;;;17.50;99.90;;;;;;5006975;28;20125;-48
2022/07/08 01:39:13;;;;;;;6.63;2.80;;;17.40;99.90;;;;;;5008064;28;20277;-54
2022/07/08 01:41:40;;;;;;;6.18;2.53;;;17.40;99.90;;;;;;5010991;28;20469;-52
2022/07/08 01:44:07;;;;;;;4.10;2.38;;;17.40;99.90;;;;;;5011602;28;20204;-56
2022/07/08 01:46:33;;;;;;;4.22;2.45;;;17.40;99.90;;;;;;5012025;28;20053;-54
2022/07/08 01:49:01;;;;;;;7.22;2.33;;;17.40;99.90;;;;;;5011507;28;20483;-51
2022/07/08 01:51:27;;;;;;;6.47;2.00;;;17.40;99.90;;;;;;5010909;28;20108;-55
2022/07/08 01:53:54;;;;;;;4.65;2.08;;;17.40;99.90;;;;;;5011725;28;20408;-53
2022/07/08 01:56:21;;;;;;;3.92;2.28;;;17.30;99.90;;;;;;5011531;28;20112;-54
2022/07/08 01:58:48;;;;;;;6.35;2.67;;;17.30;99.90;;;;;;5011631;28;20041;-53
2022/07/08 02:01:15;;;;;;;4.35;2.63;;;17.20;99.90;;;;;;5011429;28;20062;-52
2022/07/08 02:03:42;;;;;;;4.28;2.33;;;17.20;99.90;;;;;;5011629;28;20476;-53
2022/07/08 02:06:08;;;;;;;4.43;2.70;;;17.10;99.90;;;;;;5011654;28;20664;-55
2022/07/08 02:08:35;;;;;;;6.13;2.00;;;17.10;99.90;;;;;;5011536;28;20556;-54
2022/07/08 02:13:47;;;;;;;5.95;2.03;;;17.10;99.90;;;;;;5010951;28;20142;-53
2022/07/08 02:16:14;;;;;;;6.32;2.53;;;17.00;99.90;;;;;;5011213;28;20353;-53
2022/07/08 02:18:41;;;;;;;4.80;2.28;;;17.00;99.90;;;;;;5011468;28;20065;-54
2022/07/08 02:21:08;;;;;;;4.47;2.80;;;17.00;99.90;;;;;;5011236;28;20080;-55
2022/07/08 02:23:35;;;;;;;6.25;2.53;;;17.00;99.90;;;;;;5009776;28;20152;-53
2022/07/08 02:26:02;;;;;;;4.93;2.50;;;17.00;99.90;;;;;;5011144;28;20054;-54
2022/07/08 02:28:29;;;;;;;6.43;2.50;;;17.00;99.90;;;;;;5010843;28;20041;-53
2022/07/08 02:30:56;;;;;;;6.15;2.58;;;16.90;99.90;;;;;;5007347;28;20046;-54
2022/07/08 02:33:23;;;;;;;5.30;2.92;;;16.90;99.90;;;;;;5011080;28;20050;-54
2022/07/08 02:35:50;;;;;;;6.72;2.40;;;16.80;99.90;;;;;;5010755;28;20540;-53
2022/07/08 02:38:17;;;;;;;7.47;2.65;;;16.90;99.90;;;;;;5011089;28;20104;-54
2022/07/08 02:40:44;;;;;;;5.80;3.42;;;16.90;99.90;;;;;;5010676;28;20091;-54
2022/07/08 02:43:11;;;;;;;5.90;2.65;;;16.90;99.90;;;;;;5009790;28;20053;-54
2022/07/08 02:45:38;;;;;;;3.72;2.35;;;16.80;99.90;;;;;;5010935;28;20081;-54
2022/07/08 02:48:05;;;;;;;10.40;2.85;;;16.80;99.90;;;;;;5010428;28;20050;-53
2022/07/08 02:50:32;;;;;;;4.07;2.22;;;16.70;99.90;;;;;;5010514;28;20490;-54
2022/07/08 02:52:59;;;;;;;7.03;2.45;;;16.70;99.90;;;;;;5009529;28;20154;-52
2022/07/08 02:55:26;;;;;;;5.78;2.90;;;16.60;99.90;;;;;;5010506;28;20360;-54
2022/07/08 02:57:52;;;;;;;7.43;2.60;;;16.60;99.90;;;;;;5010377;28;20464;-53
2022/07/08 03:00:19;;;;;;;5.78;3.08;;;16.60;99.90;;;;;;5010663;28;20081;-55
2022/07/08 03:02:46;;;;;;;11.30;3.17;;;16.60;99.90;;;;;;5010421;28;20125;-55
2022/07/08 03:05:13;;;;;;;10.18;3.28;;;16.50;99.90;;;;;;5010328;28;20046;-55
2022/07/08 03:07:39;;;;;;;6.07;3.03;;;16.50;99.90;;;;;;5010266;28;20088;-52
2022/07/08 03:10:06;;;;;;;8.10;2.85;;;16.50;99.90;;;;;;5010231;28;20084;-54
2022/07/08 03:12:33;;;;;;;4.95;3.10;;;16.40;99.90;;;;;;5010186;28;20041;-54
2022/07/08 03:15:00;;;;;;;5.07;2.90;;;16.40;99.90;;;;;;5009450;28;20054;-53
2022/07/08 03:17:27;;;;;;;5.30;2.90;;;16.30;99.90;;;;;;5010159;28;20074;-52
2022/07/08 03:19:53;;;;;;;9.63;2.97;;;16.40;99.90;;;;;;5010329;28;20068;-55
2022/07/08 03:22:20;;;;;;;4.72;3.00;;;16.40;99.90;;;;;;5009560;28;20046;-53
2022/07/08 03:24:47;;;;;;;7.63;3.33;;;16.40;99.90;;;;;;5015347;28;20504;-53
2022/07/08 03:27:14;;;;;;;9.88;3.50;;;16.30;99.90;;;;;;5016147;28;20489;-54
2022/07/08 03:29:41;;;;;;;5.32;3.25;;;16.30;99.90;;;;;;5010196;28;20099;-54
2022/07/08 03:32:07;;;;;;;9.20;2.63;;;16.30;99.90;;;;;;5008690;28;20132;-54
2022/07/08 03:34:34;;;;;;;4.03;2.70;;;16.20;99.90;;;;;;5024920;28;20049;-51
2022/07/08 03:37:02;;;;;;;9.68;3.60;;;16.10;99.90;;;;;;5009744;28;20123;-50
2022/07/08 03:39:29;;;;;;;7.63;3.22;;;16.10;99.90;;;;;;5009564;28;20516;-54
2022/07/08 03:41:56;;;;;;;5.78;2.65;;;16.00;99.90;;;;;;5009780;28;20089;-54
2022/07/08 03:44:23;;;;;;;10.32;2.85;;;16.00;99.90;;;;;;5009492;28;20088;-53
2022/07/08 03:46:50;;;;;;;7.88;4.18;;;16.00;99.90;;;;;;5009752;28;20046;-52
2022/07/08 03:49:17;;;;;;;5.30;2.75;;;15.90;99.90;;;;;;5009568;28;20042;-51
2022/07/08 03:51:43;;;;;;;5.45;2.75;;;15.90;99.90;;;;;;5009390;28;20142;-54
2022/07/08 03:54:10;;;;;;;4.75;2.92;;;15.90;99.90;;;;;;4998926;28;20082;-53
2022/07/08 03:56:37;;;;;;;6.47;2.95;;;15.80;99.90;;;;;;5009343;28;20050;-54
2022/07/08 03:59:04;;;;;;;4.00;2.72;;;15.80;99.90;;;;;;5009166;28;20077;-54
2022/07/08 04:01:30;;;;;;;6.95;3.22;;;15.80;99.90;;;;;;5009194;28;20081;-54
2022/07/08 04:03:57;;;;;;;4.85;3.10;;;15.80;99.90;;;;;;5006815;28;20058;-53
2022/07/08 04:06:24;;;;;;;4.70;2.85;;;15.70;99.90;;;;;;5009156;28;20053;-53
2022/07/08 04:08:51;;;;;;;5.63;3.15;;;15.70;99.90;;;;;;5024247;28;20050;-53
2022/07/08 04:11:18;;;;;;;7.38;3.33;;;15.70;99.90;;;;;;5009275;28;20081;-52
2022/07/08 04:13:45;;;;;;;10.93;3.63;;;15.70;99.90;;;;;;5009274;28;20081;-54
2022/07/08 04:16:13;;;;;;;5.50;3.40;;;15.70;99.90;;;;;;5009004;28;20057;-54
2022/07/08 04:18:41;;;;;;;5.38;2.88;;;15.70;99.90;;;;;;5009007;28;20129;-54
2022/07/08 04:21:08;;;;;;;7.03;3.72;;;15.70;99.90;;;;;;5008757;28;20081;-52
2022/07/08 04:23:35;;;;;;;6.30;3.15;;;15.70;99.90;;;;;;5009041;28;20123;-49
2022/07/08 04:26:02;;;;;;;7.88;3.10;;;15.70;99.90;;;;;;5008848;28;20513;-48
2022/07/08 04:28:29;;;;;;;6.03;4.43;;;15.70;99.90;;;;;;5008736;28;20042;-49
2022/07/08 04:30:57;;;;;;;7.53;3.25;;;15.70;99.90;;;;;;5008779;28;20046;-50
2022/07/08 04:33:24;;;;;;;6.25;3.45;;;15.70;99.90;;;;;;5008966;28;20041;-56
2022/07/08 04:35:50;;;;;;;9.60;3.63;;;15.60;99.90;;;;;;5009030;28;20046;-49
2022/07/08 04:38:17;;;;;;;9.30;4.57;;;15.60;99.90;;;;;;5008957;28;20104;-51
2022/07/08 04:40:44;;;;;;;6.75;3.78;;;15.70;99.90;;;;;;5008725;28;20498;-53
2022/07/08 04:43:12;;;;;;;5.93;3.90;;;15.70;99.90;;;;;;5008948;28;20053;-54
2022/07/08 04:45:44;;;;;;;5.57;4.05;;;15.70;99.90;;;;;;5008426;28;20129;-52
2022/07/08 04:48:12;;;;;;;10.02;3.65;;;15.70;99.90;;;;;;5008569;28;20490;-50
2022/07/08 04:50:39;;;;;;;5.50;3.15;;;15.70;99.90;;;;;;5008561;28;20096;-55
2022/07/08 04:53:05;;;;;;;8.05;3.17;;;15.80;99.90;;;;;;5008815;28;20192;-52
2022/07/08 04:55:32;;;;;;;6.47;3.17;;;15.90;99.90;;;;;;5008132;28;20046;-53
2022/07/08 04:58:03;;;;;;;7.53;3.95;;;15.90;99.90;;;;;;5008538;28;20042;-54
2022/07/08 05:00:31;;;;;;;6.47;3.15;;;15.80;99.90;;;;;;5007974;28;20448;-52
2022/07/08 05:02:58;;;;;;;7.55;4.03;;;15.90;99.90;;;;;;5008875;28;20077;-53
2022/07/08 05:05:26;;;;;;;6.60;4.07;;;15.80;99.90;;;;;;5008522;28;20056;-54
2022/07/08 05:07:53;;;;;;;8.52;3.78;;;15.90;99.90;;;;;;5008107;28;20509;-53
2022/07/08 05:10:24;;;;;;;6.82;4.05;;;15.80;99.90;;;;;;5008443;28;20582;-54
2022/07/08 05:12:51;;;;;;;7.38;3.78;;;15.90;99.90;;;;;;5011604;28;20053;-52
2022/07/08 05:15:18;;;;;;;5.70;4.05;;;16.00;99.90;;;;;;5015172;28;20598;-53
2022/07/08 05:17:45;;;;;;;9.10;4.07;;;16.10;99.90;;;;;;5008343;28;20457;-52
2022/07/08 05:20:12;;;;;;;6.80;4.40;;;16.10;99.90;;;;;;5008229;28;20042;-54
2022/07/08 05:22:39;;;;;;;8.52;4.03;;;16.10;99.90;;;;;;5008087;28;20107;-51
2022/07/08 05:25:06;;;;;;;7.93;4.57;;;16.10;99.90;;;;;;5005041;28;20085;-54
2022/07/08 05:27:33;;;;;;;10.60;4.07;;;16.20;99.90;;;;;;5007960;28;20046;-56
2022/07/08 05:30:01;;;;;;;7.13;3.67;;;16.20;99.90;;;;;;5008107;28;20053;-49
2022/07/08 05:32:27;;;;;;;8.93;4.75;;;16.30;99.90;;;;;;5006698;28;20104;-50
2022/07/08 05:35:00;;;;;;;16.30;4.85;;;16.40;99.90;;;;;;5007936;28;20046;-53
2022/07/08 05:37:28;;;;;;;8.45;4.30;;;16.40;99.90;;;;;;5007959;28;20065;-54
2022/07/08 05:39:54;;;;;;;4.82;4.13;;;16.50;99.90;;;;;;5008027;28;20041;-49
2022/07/08 05:42:21;;;;;;;11.18;4.30;;;16.60;99.90;;;;;;5007949;28;20136;-49
2022/07/08 05:44:48;;;;;;;9.60;5.35;;;16.60;99.90;;;;;;4997742;28;20046;-52
2022/07/08 05:47:15;;;;;;;6.45;4.88;;;16.70;99.90;;;;;;5007597;28;20053;-51
2022/07/08 05:49:45;;;;;;;15.05;4.53;;;16.70;99.90;;;;;;5008113;28;20050;-53
2022/07/08 05:52:13;;;;;;;14.48;5.18;;;16.80;99.90;;;;;;5007447;28;20046;-55
2022/07/08 05:54:45;;;;;;;10.95;5.00;;;16.90;99.90;;;;;;4659556;28;10000105;-56
2022/07/08 05:57:12;;;;;;;15.98;5.75;;;16.90;99.90;;;;;;5005227;28;20045;-53
2022/07/08 05:59:39;;;;;;;14.90;5.43;;;16.90;99.90;;;;;;5004564;28;20140;-53
2022/07/08 06:02:06;;;;;;;9.65;4.82;;;17.00;99.90;;;;;;5004619;28;20053;-55
2022/07/08 06:04:33;;;;;;;9.20;4.93;;;17.00;99.90;;;;;;5004867;28;20144;-55
2022/07/08 06:07:00;;;;;;;13.60;5.65;;;17.10;99.90;;;;;;5004750;28;20042;-54
2022/07/08 06:09:27;;;;;;;9.27;5.68;;;17.20;99.90;;;;;;5019664;28;20053;-52
2022/07/08 06:11:54;;;;;;;9.60;4.80;;;17.20;99.90;;;;;;5004422;28;20085;-53
2022/07/08 06:14:21;;;;;;;13.68;5.70;;;17.30;99.90;;;;;;5006623;28;20492;-53
2022/07/08 06:16:48;;;;;;;9.10;5.15;;;17.40;99.90;;;;;;5004697;28;20042;-54
2022/07/08 06:19:15;;;;;;;10.98;5.95;;;17.50;99.90;;;;;;5004787;28;20126;-54
2022/07/08 06:21:42;;;;;;;7.60;5.47;;;17.50;99.90;;;;;;5019786;28;20571;-54
2022/07/08 06:24:09;;;;;;;8.82;4.68;;;17.60;99.90;;;;;;5004861;28;20077;-49
2022/07/08 06:26:36;;;;;;;9.90;4.45;;;17.50;99.90;;;;;;5004535;28;20057;-49
2022/07/08 06:29:04;;;;;;;8.02;5.30;;;17.60;99.90;;;;;;5008040;28;20092;-53
2022/07/08 06:31:31;;;;;;;18.25;7.10;;;17.60;99.90;;;;;;5007965;28;20053;-55
2022/07/08 06:33:58;;;;;;;10.25;5.00;;;17.70;99.90;;;;;;5006732;28;20054;-53
2022/07/08 06:36:26;;;;;;;10.88;5.80;;;17.70;99.90;;;;;;5007997;28;20054;-51
2022/07/08 06:38:53;;;;;;;10.18;5.40;;;17.80;99.90;;;;;;5007498;28;20050;-53
2022/07/08 06:41:19;;;;;;;6.00;4.90;;;17.80;99.90;;;;;;5007987;28;20610;-53
2022/07/08 06:43:47;;;;;;;9.82;4.97;;;17.90;99.90;;;;;;5007519;28;20092;-54
2022/07/08 06:46:13;;;;;;;14.85;6.43;;;17.90;99.90;;;;;;5007268;28;20057;-53
2022/07/08 06:48:40;;;;;;;7.57;4.82;;;17.90;99.90;;;;;;5007347;28;20491;-55
2022/07/08 06:51:07;;;;;;;10.75;4.95;;;17.90;99.90;;;;;;5007341;28;20105;-55
2022/07/08 06:56:20;;;;;;;9.07;4.85;;;18.10;99.90;;;;;;5007340;28;20185;-53
2022/07/08 06:58:47;;;;;;;13.15;6.47;;;18.20;99.90;;;;;;5007463;28;20060;-55
2022/07/08 07:01:14;;;;;;;9.20;5.05;;;18.30;99.90;;;;;;5007383;28;20116;-52
2022/07/08 07:03:40;;;;;;;10.60;5.05;;;18.30;99.90;;;;;;5005284;28;20085;-53
2022/07/08 07:06:07;;;;;;;8.20;4.72;;;18.30;99.90;;;;;;5007151;28;20184;-51
2022/07/08 07:08:34;;;;;;;7.13;4.55;;;18.30;99.90;;;;;;5007013;28;20085;-55
2022/07/08 07:11:01;;;;;;;7.30;5.20;;;18.40;99.90;;;;;;5007164;28;20077;-54
2022/07/08 07:13:28;;;;;;;10.45;5.45;;;18.30;99.90;;;;;;5006569;28;20507;-55
2022/07/08 07:15:55;;;;;;;13.85;5.65;;;18.30;99.90;;;;;;5007231;28;20045;-51
2022/07/08 07:18:21;;;;;;;7.93;5.30;;;18.40;99.90;;;;;;5007024;28;20089;-51
2022/07/08 07:20:48;;;;;;;12.10;5.13;;;18.40;99.90;;;;;;5006807;28;20285;-55
2022/07/08 07:23:15;;;;;;;9.40;4.97;;;18.40;99.90;;;;;;5007118;28;20132;-51
2022/07/08 07:25:42;;;;;;;8.98;5.22;;;18.50;99.90;;;;;;5006758;28;20053;-52
2022/07/08 07:28:09;;;;;;;10.35;4.93;;;18.50;99.90;;;;;;5006241;28;20153;-55
2022/07/08 07:30:36;;;;;;;7.80;4.75;;;18.50;99.90;;;;;;5008922;28;20146;-55
2022/07/08 07:33:03;;;;;;;9.13;4.60;;;18.50;99.90;;;;;;5006362;28;20073;-54
2022/07/08 07:35:29;;;;;;;10.38;5.22;;;18.70;99.90;;;;;;5006539;28;20128;-54
2022/07/08 07:37:56;;;;;;;11.50;5.00;;;18.70;99.90;;;;;;5006360;28;20156;-52
2022/07/08 07:40:23;;;;;;;8.15;4.40;;;18.80;99.90;;;;;;5006864;28;20466;-54
2022/07/08 07:42:50;;;;;;;10.75;5.82;;;18.80;99.90;;;;;;5006706;28;20050;-54
2022/07/08 07:45:24;;;;;;;;;;;18.90;99.90;;;;;;5006115;28;20042;-53
2022/07/08 07:47:50;;;;;;;12.63;5.63;;;18.90;99.90;;;;;;5006630;28;19933;-55
2022/07/08 07:50:17;;;;;;;13.00;4.30;;;18.90;99.90;;;;;;4997541;28;20061;-52
2022/07/08 07:52:44;;;;;;;7.15;4.43;;;19.00;99.90;;;;;;5006314;28;20085;-54
2022/07/08 07:55:11;;;;;;;8.65;4.30;;;19.00;99.90;;;;;;5006485;28;20050;-52
2022/07/08 07:57:37;;;;;;;8.63;4.00;;;19.00;99.90;;;;;;5006095;28;20058;-55
2022/07/08 08:00:06;;;;;;;10.77;4.68;;;19.10;99.90;;;;;;5006439;28;20077;-54
2022/07/08 08:02:32;;;;;;;12.50;5.00;;;19.10;99.90;;;;;;5005180;28;20552;-51
2022/07/08 08:04:59;;;;;;;7.53;4.53;;;19.20;99.90;;;;;;5006129;28;20077;-55
2022/07/08 08:07:26;;;;;;;10.57;5.25;;;19.20;99.90;;;;;;5006125;28;20143;-55
2022/07/08 08:09:53;;;;;;;12.98;5.00;;;19.20;99.90;;;;;;5006128;28;20513;-54
2022/07/08 08:12:20;;;;;;;10.48;5.53;;;19.30;99.90;;;;;;5001593;28;20049;-56
2022/07/08 08:14:46;;;;;;;11.85;5.03;;;19.40;99.90;;;;;;5006035;28;20049;-53
2022/07/08 08:17:13;;;;;;;12.90;4.82;;;19.50;99.90;;;;;;5003183;28;20189;-64
2022/07/08 08:19:40;;;;;;;14.65;5.88;;;19.50;99.90;;;;;;5002662;28;20052;-54
2022/07/08 08:22:07;;;;;;;11.23;6.15;;;19.50;99.90;;;;;;5001957;28;20054;-54
2022/07/08 08:24:34;;;;;;;12.18;5.45;;;19.60;99.90;;;;;;5000259;28;20093;-51
2022/07/08 08:27:01;;;;;;;7.85;5.93;;;19.80;99.90;;;;;;5005682;28;20053;-54
2022/07/08 08:29:27;;;;;;;11.80;5.93;;;19.80;99.90;;;;;;5005023;28;20108;-52
2022/07/08 08:31:54;;;;;;;8.07;5.80;;;19.80;99.90;;;;;;5005860;28;20065;-49
2022/07/08 08:34:21;;;;;;;10.27;7.00;;;19.90;99.90;;;;;;5005587;28;20408;-53
2022/07/08 08:36:48;;;;;;;9.77;6.13;;;20.00;99.90;;;;;;5005760;28;20046;-55
2022/07/08 08:39:15;;;;;;;13.07;6.10;;;20.10;99.90;;;;;;5005240;28;20081;-55
2022/07/08 08:41:43;;;;;;;9.02;5.50;;;20.20;99.90;;;;;;5005544;28;20147;-56
2022/07/08 08:44:10;;;;;;;16.92;4.80;;;20.20;99.90;;;;;;5005371;28;20108;-55
2022/07/08 08:46:37;;;;;;;10.70;4.93;;;20.30;99.90;;;;;;5004227;28;20053;-52
2022/07/08 08:49:03;;;;;;;9.95;5.55;;;20.40;99.90;;;;;;5004672;28;20093;-59
2022/07/08 08:51:31;;;;;;;8.15;5.28;;;20.40;99.40;;;;;;5003245;28;20115;-53
2022/07/08 08:53:58;;;;;;;10.27;5.60;;;20.30;99.70;;;;;;5004993;28;20100;-55
2022/07/08 08:56:25;;;;;;;9.90;5.88;;;20.40;99.20;;;;;;5003756;28;20054;-53
2022/07/08 08:58:53;;;;;;;13.52;5.32;;;20.50;98.60;;;;;;5000498;28;20092;-54
2022/07/08 09:01:20;;;;;;;8.50;5.57;;;20.50;99.30;;;;;;5004074;28;20122;-54
2022/07/08 09:03:47;;;;;;;9.27;5.80;;;20.70;99.00;;;;;;5004757;28;20064;-52
2022/07/08 09:06:14;;;;;;;11.73;6.22;;;20.70;98.90;;;;;;5005224;28;20092;-53
2022/07/08 09:08:40;;;;;;;17.30;5.43;;;20.80;98.60;;;;;;5004861;28;20088;-55
2022/07/08 09:11:08;;;;;;;11.27;5.53;;;20.80;98.70;;;;;;5005592;28;20276;-54
2022/07/08 09:13:35;;;;;;;15.07;6.75;;;21.00;97.60;;;;;;5005365;28;20056;-55
2022/07/08 09:16:07;;;;;;;11.48;6.10;;;21.00;97.70;;;;;;5005122;28;20069;-51
2022/07/08 09:18:35;;;;;;;12.00;6.05;;;21.00;97.60;;;;;;5005013;28;20519;-55
2022/07/08 09:21:03;;;;;;;11.40;6.95;;;21.00;97.80;;;;;;5004973;28;20103;-53
2022/07/08 09:23:34;;;;;;;13.95;6.05;;;21.10;97.40;;;;;;5005561;28;20085;-53
2022/07/08 09:26:02;;;;;;;9.70;5.25;;;21.30;96.80;;;;;;5004839;28;20136;-53
2022/07/08 09:28:34;;;;;;;6.38;4.97;;;21.30;95.40;;;;;;5005070;28;20050;-50
2022/07/08 09:31:05;;;;;;;7.53;5.53;;;21.40;96.40;;;;;;5003555;28;20042;-54
2022/07/08 09:33:32;;;;;;;8.73;4.38;;;21.50;95.60;;;;;;5005274;28;20048;-56
2022/07/08 09:36:03;;;;;;;10.23;4.50;;;21.60;95.80;;;;;;5004869;28;20038;-55
2022/07/08 09:38:32;;;;;;;6.82;3.58;;;21.70;95.60;;;;;;5005070;28;20042;-54
2022/07/08 09:41:03;;;;;;;7.75;4.00;;;21.90;94.50;;;;;;5004853;28;20570;-53
2022/07/08 09:43:31;;;;;;;10.20;4.43;;;22.00;94.00;;;;;;5005007;28;20038;-52
2022/07/08 09:46:07;;;;;;;9.70;5.47;;;22.10;94.10;;;;;;5004849;28;20124;-54
2022/07/08 09:48:34;;;;;;;7.97;3.97;;;22.30;93.80;;;;;;5004752;28;20046;-55
2022/07/08 09:51:07;;;;;;;14.77;4.10;;;22.40;94.00;;;;;;5004492;28;20050;-56
2022/07/08 09:53:35;;;;;;;9.60;3.10;;;22.50;92.90;;;;;;5007426;28;20041;-51
2022/07/08 09:56:03;;;;;;;6.70;3.78;;;22.60;92.20;;;;;;5006907;28;20042;-54
2022/07/08 09:58:31;;;;;;;8.50;4.32;;;22.60;92.30;;;;;;5007515;28;20056;-54
2022/07/08 10:00:58;;;;;;;6.65;3.45;;;22.70;92.10;;;;;;5002055;28;20058;-56
2022/07/08 10:03:25;;;;;;;6.88;3.83;;;22.80;91.60;;;;;;5008998;28;20056;-53
2022/07/08 10:05:52;;;;;;;10.38;4.05;;;22.80;91.80;;;;;;5008158;28;20053;-53
2022/07/08 10:08:19;;;;;;;7.80;4.10;;;22.80;91.70;;;;;;5007206;28;20089;-54
2022/07/08 10:10:48;;;;;;;8.55;3.55;;;22.90;91.50;;;;;;5008070;28;20081;-53
2022/07/08 10:13:15;;;;;;;5.80;2.83;;;23.10;91.20;;;;;;5011510;28;20457;-52
2022/07/08 10:15:42;;;;;;;5.78;3.60;;;23.30;90.10;;;;;;5012448;28;20520;-54
2022/07/08 10:18:20;;;;;;;8.63;3.15;;;23.70;90.00;;;;;;5008314;28;20116;-55
2022/07/08 10:20:49;;;;;;;4.10;2.75;;;24.10;86.60;;;;;;5008463;28;20096;-55
2022/07/08 10:23:49;;;;;;;8.45;3.50;;;24.30;88.10;;;;;;5006801;28;20057;-55
2022/07/08 10:26:29;;;;;;;10.43;3.50;;;24.70;81.70;;;;;;4962217;28;20223;-53
2022/07/08 10:29:00;;;;;;;8.50;3.70;;;24.90;84.40;;;;;;5004522;28;20108;-52
2022/07/08 10:31:29;;;;;;;7.32;3.53;;;25.20;81.40;;;;;;4662189;28;10001574;-56
2022/07/08 10:34:02;;;;;;;6.07;3.60;;;25.00;82.80;;;;;;5007836;28;20038;-55
2022/07/08 10:36:32;;;;;;;7.45;3.95;;;25.00;81.90;;;;;;5008097;28;20085;-54
2022/07/08 10:39:03;;;;;;;8.20;3.55;;;25.30;81.90;;;;;;5006094;28;20114;-52
2022/07/08 10:41:33;;;;;;;7.22;3.78;;;25.10;81.50;;;;;;5006417;28;20497;-54
2022/07/08 10:44:01;;;;;;;7.93;4.10;;;25.20;81.60;;;;;;5006364;28;20058;-54
2022/07/08 10:46:30;;;;;;;12.40;3.78;;;25.30;81.70;;;;;;5007451;28;20579;-56
2022/07/08 10:48:58;;;;;;;10.60;4.07;;;25.50;80.50;;;;;;5007597;28;20377;-51
2022/07/08 10:51:29;;;;;;;8.40;3.90;;;25.60;78.10;;;;;;5007558;28;20549;-54
2022/07/08 10:54:06;;;;;;;8.73;3.50;;;25.50;79.80;;;;;;5007893;28;20144;-55
2022/07/08 10:56:55;;;;;;;7.97;3.38;;;25.60;77.90;;;;;;5007756;28;20049;-55
2022/07/08 10:59:29;;;;;;;8.23;4.20;;;25.30;76.10;;;;;;5007607;28;20050;-53
2022/07/08 11:02:21;;;;;;;13.55;4.22;;;25.00;78.00;;;;;;5007322;28;20464;-55
2022/07/08 11:04:48;;;;;;;6.80;3.67;;;25.10;81.00;;;;;;5006255;28;20485;-55
2022/07/08 11:07:14;;;;;;;6.45;3.97;;;25.20;80.10;;;;;;5007093;28;20145;-55
2022/07/08 11:09:42;;;;;;;8.07;4.13;;;25.20;79.30;;;;;;5007350;28;20112;-53
2022/07/08 11:12:16;;;;;;;5.15;3.42;;;25.20;79.70;;;;;;5007235;28;20104;-52
2022/07/08 11:14:46;;;;;;;6.72;3.58;;;25.10;78.70;;;;;;5021590;28;20391;-54
2022/07/08 11:17:27;;;;;;;13.02;5.25;;;25.00;78.40;;;;;;5016182;28;20069;-54
2022/07/08 11:19:55;;;;;;;8.82;2.97;;;24.70;78.30;;;;;;5007054;28;20049;-54
2022/07/08 11:22:22;;;;;;;6.95;3.25;;;24.50;79.50;;;;;;4998406;28;20038;-54
2022/07/08 11:24:52;;;;;;;8.00;4.55;;;24.40;80.30;;;;;;5003686;28;20140;-55
2022/07/08 11:27:26;;;;;;;10.02;3.95;;;24.60;80.40;;;;;;5006994;28;20143;-55
2022/07/08 11:29:54;;;;;;;8.85;3.47;;;24.50;79.80;;;;;;5006637;28;20161;-53
2022/07/08 11:32:22;;;;;;;9.27;3.85;;;24.40;81.10;;;;;;5006585;28;20460;-56
2022/07/08 11:34:49;;;;;;;20.55;4.93;;;24.50;81.70;;;;;;5006616;28;20054;-52
2022/07/08 11:37:16;;;;;;;4.63;3.55;;;24.70;81.90;;;;;;5006952;28;20046;-53
2022/07/08 11:39:44;;;;;;;11.32;3.78;;;24.90;80.50;;;;;;5006673;28;20046;-56
2022/07/08 11:42:11;;;;;;;11.55;4.03;;;24.90;80.90;;;;;;5006799;28;20169;-55
2022/07/08 11:44:38;;;;;;;7.57;3.50;;;24.90;80.80;;;;;;5006309;28;20148;-55
2022/07/08 11:47:05;;;;;;;5.10;3.40;;;25.00;80.80;;;;;;5021751;28;20080;-54
2022/07/08 11:49:32;;;;;;;5.65;3.25;;;25.20;80.00;;;;;;5006989;28;20053;-53
2022/07/08 11:51:59;;;;;;;7.10;3.80;;;24.90;80.00;;;;;;5006272;28;20050;-51
2022/07/08 11:54:28;;;;;;;7.78;2.83;;;24.90;81.00;;;;;;5006067;28;20057;-55
2022/07/08 11:56:56;;;;;;;5.15;2.60;;;25.10;81.70;;;;;;5006609;28;20235;-53
2022/07/08 11:59:26;;;;;;;4.60;2.70;;;25.20;79.90;;;;;;5006067;28;20046;-52
2022/07/08 12:01:54;;;;;;;6.15;2.92;;;25.20;79.50;;;;;;5006424;28;20088;-53
2022/07/08 12:04:22;;;;;;;7.85;2.47;;;25.10;79.00;;;;;;5005140;28;20497;-53
2022/07/08 12:06:51;;;;;;;7.45;3.55;;;25.20;79.30;;;;;;5004744;28;20308;-55
2022/07/08 12:09:19;;;;;;;6.28;2.45;;;25.40;79.20;;;;;;5004871;28;20054;-53
2022/07/08 12:11:47;;;;;;;8.02;2.90;;;25.50;79.60;;;;;;5006078;28;20045;-57
2022/07/08 12:14:17;;;;;;;7.38;3.20;;;25.60;77.60;;;;;;5006229;28;20054;-55
2022/07/08 12:16:51;;;;;;;4.93;2.60;;;25.70;77.50;;;;;;5004941;28;20046;-50
2022/07/08 12:19:30;;;;;;;7.32;3.08;;;25.60;77.90;;;;;;4997409;28;20053;-55
2022/07/08 12:21:59;;;;;;;8.05;2.70;;;25.70;76.90;;;;;;5006163;28;20053;-54
2022/07/08 12:24:27;;;;;;;7.20;3.20;;;25.80;77.20;;;;;;4997025;28;20073;-55
2022/07/08 12:27:01;;;;;;;7.85;3.40;;;25.90;76.60;;;;;;5009053;28;20038;-54
2022/07/08 12:29:31;;;;;;;6.13;2.72;;;25.80;76.40;;;;;;5008057;28;20104;-53
2022/07/08 12:32:08;;;;;;;5.50;2.40;;;25.90;77.50;;;;;;5007417;28;20073;-51
2022/07/08 12:34:35;;;;;;;12.18;2.60;;;26.10;76.80;;;;;;5003955;28;20049;-56
2022/07/08 12:37:21;;;;;;;4.20;1.85;;;26.10;77.10;;;;;;5005617;28;20100;-53
2022/07/08 12:39:48;;;;;;;6.80;2.63;;;26.30;74.60;;;;;;5005490;28;20042;-54
2022/07/08 12:42:24;;;;;;;5.82;2.17;;;26.40;72.70;;;;;;5005739;28;20285;-53
2022/07/08 12:44:50;;;;;;;6.63;2.15;;;26.40;72.90;;;;;;5005275;28;20073;-52
2022/07/08 12:47:17;;;;;;;6.18;2.83;;;26.50;74.40;;;;;;5005360;28;20081;-51
2022/07/08 12:49:48;;;;;;;23.73;17.52;;;26.40;74.10;;;;;;5005742;28;20049;-55
2022/07/08 12:52:15;;;;;;;8.85;2.28;;;26.50;74.90;;;;;;5005567;28;20362;-54
2022/07/08 12:54:42;;;;;;;4.72;1.75;;;26.50;74.40;;;;;;5005293;28;20054;-55